sensor_id;sensor_type;location;lat;lon;timestamp;P1;durP1;ratioP1;P2;durP2;ratioP2
15142;SDS011;7672;50.834;6.286;2022-08-19T00:02:01;13.57;;;12.27;;
15142;SDS011;7672;50.834;6.286;2022-08-19T00:04:30;13.10;;;12.10;;
15142;SDS011;7672;50.834;6.286;2022-08-19T00:07:05;13.03;;;11.83;;
15142;SDS011;7672;50.834;6.286;2022-08-19T00:09:33;13.90;;;12.53;;
15142;SDS011;7672;50.834;6.286;2022-08-19T00:12:00;14.00;;;12.73;;
15142;SDS011;7672;50.834;6.286;2022-08-19T00:14:28;14.63;;;13.23;;
15142;SDS011;7672;50.834;6.286;2022-08-19T00:16:57;13.70;;;12.60;;
15142;SDS011;7672;50.834;6.286;2022-08-19T00:19:25;14.20;;;13.00;;
15142;SDS011;7672;50.834;6.286;2022-08-19T00:21:52;14.93;;;13.43;;
15142;SDS011;7672;50.834;6.286;2022-08-19T00:24:19;13.60;;;12.50;;
15142;SDS011;7672;50.834;6.286;2022-08-19T00:26:46;14.57;;;13.37;;
15142;SDS011;7672;50.834;6.286;2022-08-19T00:29:15;14.40;;;13.10;;
15142;SDS011;7672;50.834;6.286;2022-08-19T00:31:45;14.87;;;13.57;;
15142;SDS011;7672;50.834;6.286;2022-08-19T00:34:15;13.97;;;12.77;;
15142;SDS011;7672;50.834;6.286;2022-08-19T00:36:42;14.70;;;13.50;;
15142;SDS011;7672;50.834;6.286;2022-08-19T00:39:10;15.57;;;14.27;;
15142;SDS011;7672;50.834;6.286;2022-08-19T00:41:38;15.63;;;13.97;;
15142;SDS011;7672;50.834;6.286;2022-08-19T00:46:35;14.13;;;12.57;;
15142;SDS011;7672;50.834;6.286;2022-08-19T00:49:10;15.50;;;14.17;;
15142;SDS011;7672;50.834;6.286;2022-08-19T00:51:55;14.90;;;13.57;;
15142;SDS011;7672;50.834;6.286;2022-08-19T00:54:38;15.20;;;14.00;;
15142;SDS011;7672;50.834;6.286;2022-08-19T00:57:07;14.43;;;13.10;;
15142;SDS011;7672;50.834;6.286;2022-08-19T00:59:41;15.53;;;14.17;;
15142;SDS011;7672;50.834;6.286;2022-08-19T01:02:27;16.43;;;15.03;;
15142;SDS011;7672;50.834;6.286;2022-08-19T01:04:55;17.40;;;15.80;;
15142;SDS011;7672;50.834;6.286;2022-08-19T01:07:23;16.87;;;15.27;;
15142;SDS011;7672;50.834;6.286;2022-08-19T01:09:50;17.43;;;16.00;;
15142;SDS011;7672;50.834;6.286;2022-08-19T01:12:17;18.20;;;16.43;;
15142;SDS011;7672;50.834;6.286;2022-08-19T01:14:45;16.70;;;15.33;;
15142;SDS011;7672;50.834;6.286;2022-08-19T01:17:14;17.37;;;15.90;;
15142;SDS011;7672;50.834;6.286;2022-08-19T01:19:43;18.23;;;16.57;;
15142;SDS011;7672;50.834;6.286;2022-08-19T01:25:06;18.17;;;16.57;;
15142;SDS011;7672;50.834;6.286;2022-08-19T01:27:40;17.60;;;16.10;;
15142;SDS011;7672;50.834;6.286;2022-08-19T01:30:15;18.03;;;16.40;;
15142;SDS011;7672;50.834;6.286;2022-08-19T01:32:48;17.33;;;15.93;;
15142;SDS011;7672;50.834;6.286;2022-08-19T01:35:16;17.50;;;16.03;;
15142;SDS011;7672;50.834;6.286;2022-08-19T01:37:48;18.40;;;16.60;;
15142;SDS011;7672;50.834;6.286;2022-08-19T01:40:26;16.70;;;15.33;;
15142;SDS011;7672;50.834;6.286;2022-08-19T01:42:57;17.43;;;15.97;;
15142;SDS011;7672;50.834;6.286;2022-08-19T01:45:24;16.33;;;15.03;;
15142;SDS011;7672;50.834;6.286;2022-08-19T01:47:54;17.20;;;15.70;;
15142;SDS011;7672;50.834;6.286;2022-08-19T01:50:28;17.37;;;15.87;;
15142;SDS011;7672;50.834;6.286;2022-08-19T01:53:00;18.63;;;16.93;;
15142;SDS011;7672;50.834;6.286;2022-08-19T01:55:33;19.43;;;17.73;;
15142;SDS011;7672;50.834;6.286;2022-08-19T01:58:07;19.17;;;17.53;;
15142;SDS011;7672;50.834;6.286;2022-08-19T02:00:43;17.90;;;16.30;;
15142;SDS011;7672;50.834;6.286;2022-08-19T02:03:11;19.87;;;18.07;;
15142;SDS011;7672;50.834;6.286;2022-08-19T02:05:40;19.63;;;17.97;;
15142;SDS011;7672;50.834;6.286;2022-08-19T02:08:10;19.43;;;17.53;;
15142;SDS011;7672;50.834;6.286;2022-08-19T02:10:38;19.97;;;18.07;;
15142;SDS011;7672;50.834;6.286;2022-08-19T02:13:08;20.87;;;18.93;;
15142;SDS011;7672;50.834;6.286;2022-08-19T02:15:37;20.63;;;18.73;;
15142;SDS011;7672;50.834;6.286;2022-08-19T02:18:05;20.97;;;19.17;;
15142;SDS011;7672;50.834;6.286;2022-08-19T02:20:32;21.00;;;18.93;;
15142;SDS011;7672;50.834;6.286;2022-08-19T02:22:59;20.47;;;18.70;;
15142;SDS011;7672;50.834;6.286;2022-08-19T02:25:27;19.60;;;18.10;;
15142;SDS011;7672;50.834;6.286;2022-08-19T02:27:54;19.77;;;17.93;;
15142;SDS011;7672;50.834;6.286;2022-08-19T02:30:21;20.53;;;18.73;;
15142;SDS011;7672;50.834;6.286;2022-08-19T02:32:48;21.00;;;19.10;;
15142;SDS011;7672;50.834;6.286;2022-08-19T02:35:15;21.10;;;19.23;;
15142;SDS011;7672;50.834;6.286;2022-08-19T02:37:43;20.97;;;19.27;;
15142;SDS011;7672;50.834;6.286;2022-08-19T02:40:29;22.27;;;20.40;;
15142;SDS011;7672;50.834;6.286;2022-08-19T02:43:02;22.93;;;20.97;;
15142;SDS011;7672;50.834;6.286;2022-08-19T02:45:37;22.40;;;20.60;;
15142;SDS011;7672;50.834;6.286;2022-08-19T02:48:07;23.93;;;21.80;;
15142;SDS011;7672;50.834;6.286;2022-08-19T02:50:46;23.13;;;21.13;;
15142;SDS011;7672;50.834;6.286;2022-08-19T02:53:19;23.03;;;20.93;;
15142;SDS011;7672;50.834;6.286;2022-08-19T02:55:46;23.57;;;21.43;;
15142;SDS011;7672;50.834;6.286;2022-08-19T02:58:13;23.27;;;21.23;;
15142;SDS011;7672;50.834;6.286;2022-08-19T03:00:45;22.87;;;20.87;;
15142;SDS011;7672;50.834;6.286;2022-08-19T03:03:16;24.13;;;22.03;;
15142;SDS011;7672;50.834;6.286;2022-08-19T03:05:45;24.97;;;22.63;;
15142;SDS011;7672;50.834;6.286;2022-08-19T03:08:22;24.67;;;22.53;;
15142;SDS011;7672;50.834;6.286;2022-08-19T03:10:51;24.53;;;22.23;;
15142;SDS011;7672;50.834;6.286;2022-08-19T03:13:19;23.53;;;21.50;;
15142;SDS011;7672;50.834;6.286;2022-08-19T03:15:47;25.00;;;22.57;;
15142;SDS011;7672;50.834;6.286;2022-08-19T03:18:15;24.83;;;22.53;;
15142;SDS011;7672;50.834;6.286;2022-08-19T03:20:44;25.37;;;23.27;;
15142;SDS011;7672;50.834;6.286;2022-08-19T03:23:14;27.10;;;24.60;;
15142;SDS011;7672;50.834;6.286;2022-08-19T03:25:44;25.77;;;23.43;;
15142;SDS011;7672;50.834;6.286;2022-08-19T03:28:33;26.60;;;24.20;;
15142;SDS011;7672;50.834;6.286;2022-08-19T03:31:03;26.30;;;24.00;;
15142;SDS011;7672;50.834;6.286;2022-08-19T03:33:54;27.07;;;24.53;;
15142;SDS011;7672;50.834;6.286;2022-08-19T03:36:22;28.77;;;26.17;;
15142;SDS011;7672;50.834;6.286;2022-08-19T03:38:56;27.77;;;25.17;;
15142;SDS011;7672;50.834;6.286;2022-08-19T03:41:47;29.63;;;26.77;;
15142;SDS011;7672;50.834;6.286;2022-08-19T03:44:36;30.73;;;27.87;;
15142;SDS011;7672;50.834;6.286;2022-08-19T03:47:04;33.37;;;29.50;;
15142;SDS011;7672;50.834;6.286;2022-08-19T03:49:32;31.50;;;28.77;;
15142;SDS011;7672;50.834;6.286;2022-08-19T03:52:02;35.03;;;31.70;;
15142;SDS011;7672;50.834;6.286;2022-08-19T03:54:33;33.70;;;30.60;;
15142;SDS011;7672;50.834;6.286;2022-08-19T03:57:00;33.37;;;30.17;;
15142;SDS011;7672;50.834;6.286;2022-08-19T03:59:30;35.20;;;31.83;;
15142;SDS011;7672;50.834;6.286;2022-08-19T04:02:02;33.83;;;30.53;;
15142;SDS011;7672;50.834;6.286;2022-08-19T04:04:36;36.70;;;33.20;;
15142;SDS011;7672;50.834;6.286;2022-08-19T04:07:09;35.37;;;31.97;;
15142;SDS011;7672;50.834;6.286;2022-08-19T04:09:41;36.80;;;33.30;;
15142;SDS011;7672;50.834;6.286;2022-08-19T04:12:08;37.00;;;33.50;;
15142;SDS011;7672;50.834;6.286;2022-08-19T04:14:35;36.67;;;33.23;;
15142;SDS011;7672;50.834;6.286;2022-08-19T04:17:02;38.17;;;34.47;;
15142;SDS011;7672;50.834;6.286;2022-08-19T04:19:34;37.03;;;33.63;;
15142;SDS011;7672;50.834;6.286;2022-08-19T04:22:02;40.13;;;36.53;;
15142;SDS011;7672;50.834;6.286;2022-08-19T04:24:30;41.27;;;37.37;;
15142;SDS011;7672;50.834;6.286;2022-08-19T04:26:59;43.13;;;38.80;;
15142;SDS011;7672;50.834;6.286;2022-08-19T04:29:29;37.97;;;34.43;;
15142;SDS011;7672;50.834;6.286;2022-08-19T04:31:56;43.57;;;39.37;;
15142;SDS011;7672;50.834;6.286;2022-08-19T04:34:25;42.87;;;38.97;;
15142;SDS011;7672;50.834;6.286;2022-08-19T04:36:56;42.70;;;38.37;;
15142;SDS011;7672;50.834;6.286;2022-08-19T04:39:26;42.07;;;37.97;;
15142;SDS011;7672;50.834;6.286;2022-08-19T04:42:17;43.70;;;37.83;;
15142;SDS011;7672;50.834;6.286;2022-08-19T04:45:04;42.83;;;38.27;;
15142;SDS011;7672;50.834;6.286;2022-08-19T04:47:38;40.00;;;35.70;;
15142;SDS011;7672;50.834;6.286;2022-08-19T04:50:22;40.07;;;35.77;;
15142;SDS011;7672;50.834;6.286;2022-08-19T04:52:51;44.10;;;39.73;;
15142;SDS011;7672;50.834;6.286;2022-08-19T04:55:19;47.23;;;42.63;;
15142;SDS011;7672;50.834;6.286;2022-08-19T04:57:46;47.47;;;42.60;;
15142;SDS011;7672;50.834;6.286;2022-08-19T05:00:13;45.83;;;41.03;;
15142;SDS011;7672;50.834;6.286;2022-08-19T05:02:40;48.33;;;43.07;;
15142;SDS011;7672;50.834;6.286;2022-08-19T05:05:08;48.03;;;43.20;;
15142;SDS011;7672;50.834;6.286;2022-08-19T05:07:35;48.17;;;43.17;;
15142;SDS011;7672;50.834;6.286;2022-08-19T05:10:04;50.83;;;43.40;;
15142;SDS011;7672;50.834;6.286;2022-08-19T05:12:32;48.70;;;43.53;;
15142;SDS011;7672;50.834;6.286;2022-08-19T05:15:00;49.90;;;44.60;;
15142;SDS011;7672;50.834;6.286;2022-08-19T05:17:29;51.30;;;45.13;;
15142;SDS011;7672;50.834;6.286;2022-08-19T05:20:04;55.50;;;45.23;;
15142;SDS011;7672;50.834;6.286;2022-08-19T05:22:53;52.10;;;46.43;;
15142;SDS011;7672;50.834;6.286;2022-08-19T05:25:20;55.80;;;48.77;;
15142;SDS011;7672;50.834;6.286;2022-08-19T05:27:48;53.10;;;47.17;;
15142;SDS011;7672;50.834;6.286;2022-08-19T05:30:16;54.83;;;46.83;;
15142;SDS011;7672;50.834;6.286;2022-08-19T05:33:04;53.13;;;47.43;;
15142;SDS011;7672;50.834;6.286;2022-08-19T05:35:31;52.40;;;46.73;;
15142;SDS011;7672;50.834;6.286;2022-08-19T05:38:02;50.97;;;44.80;;
15142;SDS011;7672;50.834;6.286;2022-08-19T05:40:29;53.07;;;45.63;;
15142;SDS011;7672;50.834;6.286;2022-08-19T05:42:56;49.80;;;44.10;;
15142;SDS011;7672;50.834;6.286;2022-08-19T05:45:23;49.87;;;44.43;;
15142;SDS011;7672;50.834;6.286;2022-08-19T05:47:50;53.30;;;46.37;;
15142;SDS011;7672;50.834;6.286;2022-08-19T05:50:17;50.83;;;45.40;;
15142;SDS011;7672;50.834;6.286;2022-08-19T05:52:44;49.73;;;44.33;;
15142;SDS011;7672;50.834;6.286;2022-08-19T05:55:16;52.53;;;44.93;;
15142;SDS011;7672;50.834;6.286;2022-08-19T05:57:43;52.73;;;44.93;;
15142;SDS011;7672;50.834;6.286;2022-08-19T06:00:10;48.60;;;43.40;;
15142;SDS011;7672;50.834;6.286;2022-08-19T06:02:39;47.87;;;42.47;;
15142;SDS011;7672;50.834;6.286;2022-08-19T06:05:08;46.23;;;41.33;;
15142;SDS011;7672;50.834;6.286;2022-08-19T06:07:36;49.63;;;41.50;;
15142;SDS011;7672;50.834;6.286;2022-08-19T06:10:06;45.37;;;40.50;;
15142;SDS011;7672;50.834;6.286;2022-08-19T06:12:36;46.77;;;41.97;;
15142;SDS011;7672;50.834;6.286;2022-08-19T06:15:12;45.17;;;40.27;;
15142;SDS011;7672;50.834;6.286;2022-08-19T06:17:40;45.23;;;40.50;;
15142;SDS011;7672;50.834;6.286;2022-08-19T06:20:11;45.97;;;41.07;;
15142;SDS011;7672;50.834;6.286;2022-08-19T06:22:41;44.28;;;39.47;;
15142;SDS011;7672;50.834;6.286;2022-08-19T06:25:12;46.13;;;41.17;;
15142;SDS011;7672;50.834;6.286;2022-08-19T06:27:41;45.30;;;40.40;;
15142;SDS011;7672;50.834;6.286;2022-08-19T06:30:28;43.95;;;39.30;;
15142;SDS011;7672;50.834;6.286;2022-08-19T06:32:56;43.28;;;38.63;;
15142;SDS011;7672;50.834;6.286;2022-08-19T06:35:22;43.08;;;38.67;;
15142;SDS011;7672;50.834;6.286;2022-08-19T06:37:53;43.65;;;39.35;;
15142;SDS011;7672;50.834;6.286;2022-08-19T06:40:20;43.17;;;38.85;;
15142;SDS011;7672;50.834;6.286;2022-08-19T06:42:48;42.00;;;37.60;;
15142;SDS011;7672;50.834;6.286;2022-08-19T06:45:20;43.10;;;38.92;;
15142;SDS011;7672;50.834;6.286;2022-08-19T06:47:59;40.97;;;36.72;;
15142;SDS011;7672;50.834;6.286;2022-08-19T06:50:26;41.67;;;37.35;;
15142;SDS011;7672;50.834;6.286;2022-08-19T06:52:53;37.15;;;33.70;;
15142;SDS011;7672;50.834;6.286;2022-08-19T06:55:20;37.60;;;33.72;;
15142;SDS011;7672;50.834;6.286;2022-08-19T06:57:49;36.20;;;32.47;;
15142;SDS011;7672;50.834;6.286;2022-08-19T07:00:19;36.83;;;33.13;;
15142;SDS011;7672;50.834;6.286;2022-08-19T07:02:47;34.55;;;31.02;;
15142;SDS011;7672;50.834;6.286;2022-08-19T07:05:24;34.47;;;30.80;;
15142;SDS011;7672;50.834;6.286;2022-08-19T07:07:51;32.05;;;28.95;;
15142;SDS011;7672;50.834;6.286;2022-08-19T07:10:22;33.88;;;30.48;;
15142;SDS011;7672;50.834;6.286;2022-08-19T07:12:51;32.92;;;29.70;;
15142;SDS011;7672;50.834;6.286;2022-08-19T07:15:18;32.08;;;28.98;;
15142;SDS011;7672;50.834;6.286;2022-08-19T07:17:47;31.52;;;28.42;;
15142;SDS011;7672;50.834;6.286;2022-08-19T07:20:20;32.03;;;28.92;;
15142;SDS011;7672;50.834;6.286;2022-08-19T07:22:53;32.30;;;29.08;;
15142;SDS011;7672;50.834;6.286;2022-08-19T07:25:21;31.25;;;28.38;;
15142;SDS011;7672;50.834;6.286;2022-08-19T07:27:57;31.75;;;28.63;;
15142;SDS011;7672;50.834;6.286;2022-08-19T07:30:26;32.58;;;29.45;;
15142;SDS011;7672;50.834;6.286;2022-08-19T07:32:54;31.67;;;28.77;;
15142;SDS011;7672;50.834;6.286;2022-08-19T07:35:23;28.30;;;25.55;;
15142;SDS011;7672;50.834;6.286;2022-08-19T07:37:51;28.17;;;25.58;;
15142;SDS011;7672;50.834;6.286;2022-08-19T07:40:20;26.90;;;24.27;;
15142;SDS011;7672;50.834;6.286;2022-08-19T07:42:50;26.08;;;23.70;;
15142;SDS011;7672;50.834;6.286;2022-08-19T07:45:18;26.92;;;24.52;;
15142;SDS011;7672;50.834;6.286;2022-08-19T07:47:48;26.83;;;24.42;;
15142;SDS011;7672;50.834;6.286;2022-08-19T07:50:19;25.55;;;23.35;;
15142;SDS011;7672;50.834;6.286;2022-08-19T07:52:47;25.80;;;23.50;;
15142;SDS011;7672;50.834;6.286;2022-08-19T07:55:18;26.38;;;24.05;;
15142;SDS011;7672;50.834;6.286;2022-08-19T07:58:07;23.92;;;21.90;;
15142;SDS011;7672;50.834;6.286;2022-08-19T08:00:38;28.27;;;25.73;;
15142;SDS011;7672;50.834;6.286;2022-08-19T08:03:08;26.77;;;24.42;;
15142;SDS011;7672;50.834;6.286;2022-08-19T08:05:36;25.60;;;23.10;;
15142;SDS011;7672;50.834;6.286;2022-08-19T08:08:21;28.60;;;26.00;;
15142;SDS011;7672;50.834;6.286;2022-08-19T08:11:17;28.23;;;25.70;;
15142;SDS011;7672;50.834;6.286;2022-08-19T08:13:46;30.95;;;28.20;;
15142;SDS011;7672;50.834;6.286;2022-08-19T08:16:30;30.27;;;27.67;;
15142;SDS011;7672;50.834;6.286;2022-08-19T08:19:12;32.75;;;29.83;;
15142;SDS011;7672;50.834;6.286;2022-08-19T08:21:51;32.38;;;29.77;;
15142;SDS011;7672;50.834;6.286;2022-08-19T08:24:24;35.15;;;32.00;;
15142;SDS011;7672;50.834;6.286;2022-08-19T08:26:57;37.67;;;34.33;;
15142;SDS011;7672;50.834;6.286;2022-08-19T08:29:29;38.03;;;34.63;;
15142;SDS011;7672;50.834;6.286;2022-08-19T08:32:00;36.88;;;33.30;;
15142;SDS011;7672;50.834;6.286;2022-08-19T08:34:40;35.92;;;32.72;;
15142;SDS011;7672;50.834;6.286;2022-08-19T08:37:09;37.70;;;34.35;;
15142;SDS011;7672;50.834;6.286;2022-08-19T08:39:42;37.47;;;34.33;;
15142;SDS011;7672;50.834;6.286;2022-08-19T08:42:18;37.63;;;34.00;;
15142;SDS011;7672;50.834;6.286;2022-08-19T08:45:00;35.95;;;32.72;;
15142;SDS011;7672;50.834;6.286;2022-08-19T08:47:39;36.95;;;33.75;;
15142;SDS011;7672;50.834;6.286;2022-08-19T08:50:24;35.00;;;32.03;;
15142;SDS011;7672;50.834;6.286;2022-08-19T08:53:02;35.42;;;32.38;;
15142;SDS011;7672;50.834;6.286;2022-08-19T08:55:33;32.70;;;29.88;;
15142;SDS011;7672;50.834;6.286;2022-08-19T08:58:16;33.03;;;30.33;;
15142;SDS011;7672;50.834;6.286;2022-08-19T09:00:57;31.88;;;29.13;;
15142;SDS011;7672;50.834;6.286;2022-08-19T09:03:25;30.52;;;28.10;;
15142;SDS011;7672;50.834;6.286;2022-08-19T09:08:39;29.95;;;27.58;;
15142;SDS011;7672;50.834;6.286;2022-08-19T09:11:12;30.33;;;27.55;;
15142;SDS011;7672;50.834;6.286;2022-08-19T09:14:19;29.23;;;26.90;;
15142;SDS011;7672;50.834;6.286;2022-08-19T09:17:22;32.10;;;29.52;;
15142;SDS011;7672;50.834;6.286;2022-08-19T09:19:59;33.78;;;30.83;;
15142;SDS011;7672;50.834;6.286;2022-08-19T09:22:37;33.85;;;30.40;;
15142;SDS011;7672;50.834;6.286;2022-08-19T09:25:12;33.00;;;30.30;;
15142;SDS011;7672;50.834;6.286;2022-08-19T09:27:50;29.88;;;27.40;;
15142;SDS011;7672;50.834;6.286;2022-08-19T09:30:21;33.55;;;30.95;;
15142;SDS011;7672;50.834;6.286;2022-08-19T09:32:56;32.97;;;30.27;;
15142;SDS011;7672;50.834;6.286;2022-08-19T09:35:25;34.60;;;31.60;;
15142;SDS011;7672;50.834;6.286;2022-08-19T09:38:15;32.60;;;29.67;;
15142;SDS011;7672;50.834;6.286;2022-08-19T09:40:42;34.42;;;31.67;;
15142;SDS011;7672;50.834;6.286;2022-08-19T09:43:09;33.00;;;30.40;;
15142;SDS011;7672;50.834;6.286;2022-08-19T09:45:41;35.95;;;32.95;;
15142;SDS011;7672;50.834;6.286;2022-08-19T09:48:12;33.53;;;30.90;;
15142;SDS011;7672;50.834;6.286;2022-08-19T09:50:44;33.20;;;30.50;;
15142;SDS011;7672;50.834;6.286;2022-08-19T09:53:17;34.58;;;31.70;;
15142;SDS011;7672;50.834;6.286;2022-08-19T09:55:45;34.70;;;31.90;;
15142;SDS011;7672;50.834;6.286;2022-08-19T09:58:12;30.73;;;28.13;;
15142;SDS011;7672;50.834;6.286;2022-08-19T10:00:39;31.05;;;28.50;;
15142;SDS011;7672;50.834;6.286;2022-08-19T10:03:06;31.55;;;28.75;;
15142;SDS011;7672;50.834;6.286;2022-08-19T10:05:36;28.88;;;26.40;;
15142;SDS011;7672;50.834;6.286;2022-08-19T10:08:21;31.35;;;28.60;;
15142;SDS011;7672;50.834;6.286;2022-08-19T10:10:52;29.30;;;26.80;;
15142;SDS011;7672;50.834;6.286;2022-08-19T10:13:22;30.98;;;28.48;;
15142;SDS011;7672;50.834;6.286;2022-08-19T10:15:52;32.17;;;29.58;;
15142;SDS011;7672;50.834;6.286;2022-08-19T10:18:30;29.50;;;26.88;;
15142;SDS011;7672;50.834;6.286;2022-08-19T10:21:09;30.15;;;27.35;;
15142;SDS011;7672;50.834;6.286;2022-08-19T10:23:45;31.40;;;28.80;;
15142;SDS011;7672;50.834;6.286;2022-08-19T10:26:22;29.98;;;27.48;;
15142;SDS011;7672;50.834;6.286;2022-08-19T10:28:56;27.58;;;25.27;;
15142;SDS011;7672;50.834;6.286;2022-08-19T10:31:29;30.13;;;27.50;;
15142;SDS011;7672;50.834;6.286;2022-08-19T10:34:19;29.63;;;27.13;;
15142;SDS011;7672;50.834;6.286;2022-08-19T10:36:53;28.13;;;25.63;;
15142;SDS011;7672;50.834;6.286;2022-08-19T10:39:27;27.83;;;25.50;;
15142;SDS011;7672;50.834;6.286;2022-08-19T10:42:09;27.52;;;25.10;;
15142;SDS011;7672;50.834;6.286;2022-08-19T10:44:43;26.73;;;24.58;;
15142;SDS011;7672;50.834;6.286;2022-08-19T10:47:17;26.10;;;23.77;;
15142;SDS011;7672;50.834;6.286;2022-08-19T10:49:54;25.77;;;23.67;;
15142;SDS011;7672;50.834;6.286;2022-08-19T10:52:42;25.20;;;23.00;;
15142;SDS011;7672;50.834;6.286;2022-08-19T10:55:19;25.25;;;23.15;;
15142;SDS011;7672;50.834;6.286;2022-08-19T10:58:09;24.27;;;22.33;;
15142;SDS011;7672;50.834;6.286;2022-08-19T11:00:55;25.40;;;22.92;;
15142;SDS011;7672;50.834;6.286;2022-08-19T11:03:25;25.33;;;23.02;;
15142;SDS011;7672;50.834;6.286;2022-08-19T11:05:59;26.38;;;24.15;;
15142;SDS011;7672;50.834;6.286;2022-08-19T11:08:32;25.60;;;23.50;;
15142;SDS011;7672;50.834;6.286;2022-08-19T11:11:01;23.00;;;21.20;;
15142;SDS011;7672;50.834;6.286;2022-08-19T11:13:33;22.63;;;20.73;;
15142;SDS011;7672;50.834;6.286;2022-08-19T11:16:04;21.65;;;19.58;;
15142;SDS011;7672;50.834;6.286;2022-08-19T11:18:44;24.15;;;22.05;;
15142;SDS011;7672;50.834;6.286;2022-08-19T11:21:25;22.63;;;20.90;;
15142;SDS011;7672;50.834;6.286;2022-08-19T11:24:06;20.85;;;19.10;;
15142;SDS011;7672;50.834;6.286;2022-08-19T11:26:44;21.92;;;20.20;;
15142;SDS011;7672;50.834;6.286;2022-08-19T11:29:12;22.42;;;20.42;;
15142;SDS011;7672;50.834;6.286;2022-08-19T11:31:43;22.50;;;20.40;;
15142;SDS011;7672;50.834;6.286;2022-08-19T11:34:14;23.40;;;21.35;;
15142;SDS011;7672;50.834;6.286;2022-08-19T11:36:46;24.17;;;21.95;;
15142;SDS011;7672;50.834;6.286;2022-08-19T11:39:19;20.40;;;18.60;;
15142;SDS011;7672;50.834;6.286;2022-08-19T11:41:53;22.00;;;20.20;;
15142;SDS011;7672;50.834;6.286;2022-08-19T11:44:21;21.92;;;20.13;;
15142;SDS011;7672;50.834;6.286;2022-08-19T11:46:51;19.52;;;17.92;;
15142;SDS011;7672;50.834;6.286;2022-08-19T11:49:18;18.88;;;17.35;;
15142;SDS011;7672;50.834;6.286;2022-08-19T11:51:47;18.75;;;17.25;;
15142;SDS011;7672;50.834;6.286;2022-08-19T11:54:18;19.05;;;17.42;;
15142;SDS011;7672;50.834;6.286;2022-08-19T11:56:46;19.35;;;17.63;;
15142;SDS011;7672;50.834;6.286;2022-08-19T11:59:15;20.95;;;19.10;;
15142;SDS011;7672;50.834;6.286;2022-08-19T12:01:43;19.95;;;18.25;;
15142;SDS011;7672;50.834;6.286;2022-08-19T12:04:12;18.40;;;16.88;;
15142;SDS011;7672;50.834;6.286;2022-08-19T12:06:39;20.50;;;18.63;;
15142;SDS011;7672;50.834;6.286;2022-08-19T12:09:08;23.27;;;21.30;;
15142;SDS011;7672;50.834;6.286;2022-08-19T12:11:42;22.80;;;20.88;;
15142;SDS011;7672;50.834;6.286;2022-08-19T12:14:10;22.08;;;20.17;;
15142;SDS011;7672;50.834;6.286;2022-08-19T12:16:42;19.98;;;18.38;;
15142;SDS011;7672;50.834;6.286;2022-08-19T12:19:16;19.95;;;18.15;;
15142;SDS011;7672;50.834;6.286;2022-08-19T12:21:48;21.77;;;19.98;;
15142;SDS011;7672;50.834;6.286;2022-08-19T12:24:16;22.17;;;20.23;;
15142;SDS011;7672;50.834;6.286;2022-08-19T12:26:49;25.75;;;23.45;;
15142;SDS011;7672;50.834;6.286;2022-08-19T12:29:19;20.63;;;18.73;;
15142;SDS011;7672;50.834;6.286;2022-08-19T12:31:49;20.50;;;18.63;;
15142;SDS011;7672;50.834;6.286;2022-08-19T12:34:17;20.65;;;18.85;;
15142;SDS011;7672;50.834;6.286;2022-08-19T12:36:46;17.90;;;16.25;;
15142;SDS011;7672;50.834;6.286;2022-08-19T12:39:15;15.32;;;14.02;;
15142;SDS011;7672;50.834;6.286;2022-08-19T12:41:44;12.77;;;11.38;;
15142;SDS011;7672;50.834;6.286;2022-08-19T12:44:20;12.23;;;11.13;;
15142;SDS011;7672;50.834;6.286;2022-08-19T12:46:57;11.38;;;10.35;;
15142;SDS011;7672;50.834;6.286;2022-08-19T12:49:27;12.50;;;11.40;;
15142;SDS011;7672;50.834;6.286;2022-08-19T12:52:15;13.40;;;12.13;;
15142;SDS011;7672;50.834;6.286;2022-08-19T12:54:48;11.88;;;10.68;;
15142;SDS011;7672;50.834;6.286;2022-08-19T12:57:20;11.02;;;10.05;;
15142;SDS011;7672;50.834;6.286;2022-08-19T13:00:03;9.45;;;8.63;;
15142;SDS011;7672;50.834;6.286;2022-08-19T13:02:35;8.32;;;7.47;;
15142;SDS011;7672;50.834;6.286;2022-08-19T13:05:05;6.68;;;5.47;;
15142;SDS011;7672;50.834;6.286;2022-08-19T13:07:34;5.60;;;4.95;;
15142;SDS011;7672;50.834;6.286;2022-08-19T13:10:07;5.28;;;4.70;;
15142;SDS011;7672;50.834;6.286;2022-08-19T13:12:42;7.18;;;4.72;;
15142;SDS011;7672;50.834;6.286;2022-08-19T13:15:11;7.28;;;5.28;;
15142;SDS011;7672;50.834;6.286;2022-08-19T13:17:40;5.60;;;5.20;;
15142;SDS011;7672;50.834;6.286;2022-08-19T13:20:08;5.30;;;4.75;;
15142;SDS011;7672;50.834;6.286;2022-08-19T13:22:37;5.95;;;4.55;;
15142;SDS011;7672;50.834;6.286;2022-08-19T13:25:05;4.57;;;4.03;;
15142;SDS011;7672;50.834;6.286;2022-08-19T13:27:33;4.90;;;4.50;;
15142;SDS011;7672;50.834;6.286;2022-08-19T13:30:02;6.30;;;5.72;;
15142;SDS011;7672;50.834;6.286;2022-08-19T13:32:51;5.25;;;4.75;;
15142;SDS011;7672;50.834;6.286;2022-08-19T13:35:37;4.80;;;4.30;;
15142;SDS011;7672;50.834;6.286;2022-08-19T13:38:06;4.43;;;4.03;;
15142;SDS011;7672;50.834;6.286;2022-08-19T13:40:37;4.72;;;4.32;;
15142;SDS011;7672;50.834;6.286;2022-08-19T13:43:06;5.45;;;4.40;;
15142;SDS011;7672;50.834;6.286;2022-08-19T13:45:48;4.60;;;4.20;;
15142;SDS011;7672;50.834;6.286;2022-08-19T13:48:22;6.53;;;4.70;;
15142;SDS011;7672;50.834;6.286;2022-08-19T13:50:52;5.05;;;4.20;;
15142;SDS011;7672;50.834;6.286;2022-08-19T13:53:20;4.65;;;4.22;;
15142;SDS011;7672;50.834;6.286;2022-08-19T13:55:47;7.22;;;3.65;;
15142;SDS011;7672;50.834;6.286;2022-08-19T13:58:16;4.07;;;3.65;;
15142;SDS011;7672;50.834;6.286;2022-08-19T14:00:43;4.43;;;3.90;;
15142;SDS011;7672;50.834;6.286;2022-08-19T14:03:12;3.92;;;3.60;;
15142;SDS011;7672;50.834;6.286;2022-08-19T14:05:39;3.97;;;3.58;;
15142;SDS011;7672;50.834;6.286;2022-08-19T14:08:08;8.07;;;4.20;;
15142;SDS011;7672;50.834;6.286;2022-08-19T14:10:36;6.72;;;3.83;;
15142;SDS011;7672;50.834;6.286;2022-08-19T14:13:03;4.88;;;4.20;;
15142;SDS011;7672;50.834;6.286;2022-08-19T14:15:30;4.75;;;3.65;;
15142;SDS011;7672;50.834;6.286;2022-08-19T14:18:00;3.58;;;3.28;;
15142;SDS011;7672;50.834;6.286;2022-08-19T14:20:27;4.38;;;3.80;;
15142;SDS011;7672;50.834;6.286;2022-08-19T14:22:55;3.45;;;3.15;;
15142;SDS011;7672;50.834;6.286;2022-08-19T14:25:23;5.18;;;3.47;;
15142;SDS011;7672;50.834;6.286;2022-08-19T14:27:54;3.63;;;3.33;;
15142;SDS011;7672;50.834;6.286;2022-08-19T14:30:27;3.80;;;3.55;;
15142;SDS011;7672;50.834;6.286;2022-08-19T14:33:01;3.85;;;3.10;;
15142;SDS011;7672;50.834;6.286;2022-08-19T14:35:29;3.47;;;3.17;;
15142;SDS011;7672;50.834;6.286;2022-08-19T14:38:03;4.47;;;3.17;;
15142;SDS011;7672;50.834;6.286;2022-08-19T14:40:40;3.78;;;2.75;;
15142;SDS011;7672;50.834;6.286;2022-08-19T14:43:08;3.42;;;2.80;;
15142;SDS011;7672;50.834;6.286;2022-08-19T14:45:36;3.25;;;2.95;;
15142;SDS011;7672;50.834;6.286;2022-08-19T14:48:06;3.20;;;2.90;;
15142;SDS011;7672;50.834;6.286;2022-08-19T14:50:44;4.00;;;2.90;;
15142;SDS011;7672;50.834;6.286;2022-08-19T14:53:11;2.58;;;2.38;;
15142;SDS011;7672;50.834;6.286;2022-08-19T14:55:42;3.97;;;2.83;;
15142;SDS011;7672;50.834;6.286;2022-08-19T14:58:11;3.55;;;3.17;;
15142;SDS011;7672;50.834;6.286;2022-08-19T15:00:56;4.50;;;3.08;;
15142;SDS011;7672;50.834;6.286;2022-08-19T15:03:25;5.03;;;3.10;;
15142;SDS011;7672;50.834;6.286;2022-08-19T15:05:53;4.68;;;3.10;;
15142;SDS011;7672;50.834;6.286;2022-08-19T15:08:23;4.20;;;3.22;;
15142;SDS011;7672;50.834;6.286;2022-08-19T15:10:52;5.13;;;3.35;;
15142;SDS011;7672;50.834;6.286;2022-08-19T15:13:19;3.22;;;2.95;;
15142;SDS011;7672;50.834;6.286;2022-08-19T15:15:47;3.70;;;3.40;;